createdAt,value
2022-07-29T00:01:59.322Z,100468.56
2022-07-29T00:07:02.107Z,100480.88
2022-07-29T00:12:06.874Z,100476.56
2022-07-29T00:17:12.566Z,100478.34
2022-07-29T00:22:16.119Z,100459.59
2022-07-29T00:27:20.468Z,100458.69
2022-07-29T00:32:23.196Z,100448.84
2022-07-29T00:37:26.239Z,100455.13
2022-07-29T00:42:30.260Z,100451.56
2022-07-29T00:47:32.962Z,100446.97
2022-07-29T00:52:38.017Z,100441.59
2022-07-29T00:57:42.911Z,100445.88
2022-07-29T01:02:45.765Z,100421.00
2022-07-29T01:07:51.718Z,100402.22
2022-07-29T01:12:57.159Z,100403.19
2022-07-29T01:18:09.317Z,100398.88
2022-07-29T01:23:34.657Z,100394.34
2022-07-29T01:29:00.726Z,100383.66
2022-07-29T01:34:11.182Z,100392.44
2022-07-29T01:39:20.262Z,100381.72
2022-07-29T01:44:29.573Z,100379.81
2022-07-29T01:49:35.121Z,100386.03
2022-07-29T01:54:43.755Z,100372.75
2022-07-29T01:59:51.205Z,100370.97
2022-07-29T02:04:54.334Z,100361.94
2022-07-29T02:09:58.073Z,100365.47
2022-07-29T02:15:04.050Z,100358.41
2022-07-29T02:20:08.493Z,100359.34
2022-07-29T02:25:14.008Z,100366.59
2022-07-29T02:30:18.651Z,100357.59
2022-07-29T02:35:22.191Z,100352.34
2022-07-29T02:40:24.871Z,100355.81
2022-07-29T02:45:29.552Z,100354.06
2022-07-29T02:50:35.040Z,100358.50
2022-07-29T02:55:42.878Z,100351.38
2022-07-29T03:00:48.420Z,100343.34
2022-07-29T03:05:51.166Z,100348.69
2022-07-29T03:10:55.062Z,100338.84
2022-07-29T03:15:59.555Z,100342.38
2022-07-29T03:21:02.603Z,100339.69
2022-07-29T03:26:05.333Z,100326.38
2022-07-29T03:31:09.402Z,100340.63
2022-07-29T03:36:12.125Z,100342.38
2022-07-29T03:41:15.263Z,100340.56
2022-07-29T03:46:19.917Z,100369.91
2022-07-29T03:51:31.542Z,100353.91
2022-07-29T03:56:39.940Z,100352.16
2022-07-29T04:01:44.520Z,100346.72
2022-07-29T04:06:48.584Z,100352.03
2022-07-29T04:12:01.889Z,100340.50
2022-07-29T04:17:07.787Z,100342.25
2022-07-29T04:22:10.475Z,100336.03
2022-07-29T04:27:13.166Z,100332.44
2022-07-29T04:32:17.270Z,100327.13
2022-07-29T04:37:20.068Z,100329.69
2022-07-29T04:42:27.496Z,100323.53
2022-07-29T04:47:31.891Z,100329.78
2022-07-29T04:52:35.541Z,100320.91
2022-07-29T04:57:38.332Z,100317.44
2022-07-29T05:02:42.481Z,100313.94
2022-07-29T05:07:45.181Z,100318.38
2022-07-29T05:12:48.089Z,100314.78
2022-07-29T05:17:52.122Z,100330.81
2022-07-29T05:22:54.811Z,100322.91
2022-07-29T05:27:57.830Z,100331.84
2022-07-29T05:33:01.893Z,100336.28
2022-07-29T05:38:04.719Z,100351.47
2022-07-29T05:43:07.385Z,100346.91
2022-07-29T05:48:11.517Z,100353.25
2022-07-29T05:53:18.993Z,100346.22
2022-07-29T05:58:23.221Z,100355.19
2022-07-29T06:03:27.354Z,100357.88
2022-07-29T06:08:30.043Z,100349.88
2022-07-29T06:13:33.130Z,100344.59
2022-07-29T06:18:37.144Z,100344.50
2022-07-29T06:23:40.352Z,100357.06
2022-07-29T06:28:43.043Z,100355.63
2022-07-29T06:33:47.110Z,100359.41
2022-07-29T06:38:51.377Z,100361.13
2022-07-29T06:43:56.810Z,100368.31
2022-07-29T06:49:02.443Z,100398.59
2022-07-29T06:54:06.505Z,100368.34
2022-07-29T06:59:10.731Z,100384.41
2022-07-29T07:04:15.554Z,100390.72
2022-07-29T07:09:18.483Z,100400.63
2022-07-29T07:14:21.642Z,100414.06
2022-07-29T07:19:25.864Z,100415.84
2022-07-29T07:24:28.714Z,100411.59
2022-07-29T07:29:31.398Z,100414.28
2022-07-29T07:34:35.671Z,100397.34
2022-07-29T07:39:38.336Z,100395.50
2022-07-29T07:45:03.723Z,100391.97
2022-07-29T07:50:06.315Z,100385.66
2022-07-29T07:55:10.046Z,100386.63
2022-07-29T08:00:13.992Z,100379.47
2022-07-29T08:05:18.851Z,100384.78
2022-07-29T08:10:35.891Z,100381.16
2022-07-29T08:15:38.645Z,100369.34
2022-07-29T08:20:42.719Z,100393.50
2022-07-29T08:25:45.402Z,100378.16
2022-07-29T08:30:52.707Z,100372.66
2022-07-29T08:35:56.740Z,100385.25
2022-07-29T08:41:00.238Z,100372.63
2022-07-29T08:46:03.029Z,100368.16
2022-07-29T08:51:09.383Z,100374.44
2022-07-29T08:56:13.945Z,100363.72
2022-07-29T09:01:19.753Z,100367.44
2022-07-29T09:06:27.573Z,100362.69
2022-07-29T09:11:30.395Z,100350.09
2022-07-29T09:16:54.268Z,100360.50
2022-07-29T09:22:00.525Z,100366.88
2022-07-29T09:27:10.409Z,100359.59
2022-07-29T09:32:13.343Z,100356.00
2022-07-29T09:37:29.307Z,100362.16
2022-07-29T09:42:34.700Z,100372.84
2022-07-29T09:47:45.833Z,100391.13
2022-07-29T09:52:51.417Z,100377.97
2022-07-29T09:57:54.592Z,100368.63
2022-07-29T10:03:03.411Z,100365.28
2022-07-29T10:08:08.489Z,100369.09
2022-07-29T10:13:15.787Z,100362.31
2022-07-29T10:18:20.863Z,100356.94
2022-07-29T10:23:25.045Z,100351.91
2022-07-29T10:28:28.287Z,100364.84
2022-07-29T10:33:43.541Z,100339.50
2022-07-29T10:38:53.966Z,100357.81
2022-07-29T10:44:00.380Z,100353.06
2022-07-29T10:49:07.057Z,100356.22
2022-07-29T10:54:12.199Z,100349.06
2022-07-29T10:59:36.048Z,100349.09
2022-07-29T11:05:01.042Z,100344.19
2022-07-29T11:10:26.992Z,100342.09
2022-07-29T11:15:54.520Z,100337.97
2022-07-29T11:20:58.292Z,100332.28
2022-07-29T11:26:23.022Z,100333.50
2022-07-29T11:31:37.746Z,100336.53
2022-07-29T11:37:20.240Z,100335.03
2022-07-29T11:42:47.968Z,100343.28
2022-07-29T11:48:05.231Z,100341.13
2022-07-29T11:53:22.138Z,100339.28
2022-07-29T11:58:27.049Z,100333.72
2022-07-29T12:03:33.287Z,100329.47
2022-07-29T12:08:43.247Z,100325.59
2022-07-29T12:13:47.307Z,100326.97
2022-07-29T12:18:59.704Z,100340.03
2022-07-29T12:24:09.143Z,100315.88
2022-07-29T12:29:20.080Z,100321.47
2022-07-29T12:34:36.851Z,100327.22
2022-07-29T12:39:40.130Z,100330.09
2022-07-29T12:44:48.582Z,100314.16
2022-07-29T12:50:09.792Z,100316.69
2022-07-29T12:55:12.702Z,100316.53
2022-07-29T13:00:17.557Z,100313.94
2022-07-29T13:05:20.450Z,100308.97
2022-07-29T13:10:24.110Z,100325.22
2022-07-29T13:15:28.804Z,100309.59
2022-07-29T13:20:31.976Z,100312.34
2022-07-29T13:25:35.293Z,100300.69
2022-07-29T13:30:44.486Z,100301.38
2022-07-29T13:35:48.427Z,100295.34
2022-07-29T13:40:51.585Z,100298.84
2022-07-29T13:45:55.713Z,100293.97
2022-07-29T13:50:58.739Z,100298.50
2022-07-29T13:56:01.416Z,100300.69
2022-07-29T14:01:05.546Z,100287.75
2022-07-29T14:06:08.243Z,100283.56
2022-07-29T14:11:10.952Z,100284.13
2022-07-29T14:16:15.256Z,100291.13
2022-07-29T14:21:19.415Z,100290.69
2022-07-29T14:26:24.300Z,100301.28
2022-07-29T14:31:28.535Z,100291.94
2022-07-29T14:36:31.273Z,100294.03
2022-07-29T14:41:33.984Z,100301.22
2022-07-29T14:46:38.022Z,100309.91
2022-07-29T14:51:40.689Z,100313.59
2022-07-29T14:56:46.374Z,100308.47
2022-07-29T15:01:51.232Z,100296.44
2022-07-29T15:06:53.976Z,100296.78
2022-07-29T15:11:57.036Z,100312.31
2022-07-29T15:17:01.289Z,100310.78
2022-07-29T15:22:07.205Z,100288.94
2022-07-29T15:27:14.815Z,100296.00
2022-07-29T15:32:18.980Z,100294.91
2022-07-29T15:37:21.783Z,100274.53
2022-07-29T15:42:24.458Z,100277.50
2022-07-29T15:47:28.479Z,100276.22
2022-07-29T15:52:31.179Z,100278.91
2022-07-29T15:57:34.317Z,100277.28
2022-07-29T16:02:38.631Z,100289.66
2022-07-29T16:07:41.322Z,100279.34
2022-07-29T16:12:44.029Z,100265.38
2022-07-29T16:17:48.413Z,100275.13
2022-07-29T16:22:51.145Z,100287.16
2022-07-29T16:27:57.009Z,100284.09
2022-07-29T16:33:08.028Z,100279.22
2022-07-29T16:38:11.084Z,100299.03
2022-07-29T16:43:13.806Z,100289.53
2022-07-29T16:48:18.795Z,100293.72
2022-07-29T16:53:21.690Z,100298.81
2022-07-29T16:58:24.379Z,100302.91
2022-07-29T17:03:28.400Z,100304.22
2022-07-29T17:08:31.072Z,100303.91
2022-07-29T17:13:33.735Z,100300.47
2022-07-29T17:18:37.729Z,100301.34
2022-07-29T17:23:40.396Z,100320.09
2022-07-29T17:28:43.101Z,100329.25
2022-07-29T17:33:47.429Z,100328.69
2022-07-29T17:38:51.022Z,100336.91
2022-07-29T17:43:54.568Z,100337.41
2022-07-29T17:48:58.645Z,100342.97
2022-07-29T17:54:01.407Z,100343.00
2022-07-29T17:59:06.586Z,100360.06
2022-07-29T18:04:11.216Z,100358.28
2022-07-29T18:09:13.881Z,100355.66
2022-07-29T18:14:16.997Z,100354.78
2022-07-29T18:19:21.052Z,100358.41
2022-07-29T18:24:25.277Z,100368.41
2022-07-29T18:29:30.286Z,100400.63
2022-07-29T18:34:34.637Z,100409.66
2022-07-29T18:39:37.661Z,100394.47
2022-07-29T18:44:43.782Z,100385.63
2022-07-29T18:49:53.258Z,100396.41
2022-07-29T18:54:56.138Z,100408.03
2022-07-29T18:59:58.824Z,100393.69
2022-07-29T19:05:02.845Z,100385.69
2022-07-29T19:10:06.400Z,100400.78
2022-07-29T19:15:10.325Z,100401.75
2022-07-29T19:20:14.613Z,100408.03
2022-07-29T19:25:19.408Z,100422.31
2022-07-29T19:30:22.333Z,100433.00
2022-07-29T19:35:28.233Z,100451.75
2022-07-29T19:40:31.550Z,100441.91
2022-07-29T19:45:34.764Z,100438.31
2022-07-29T19:50:38.870Z,100428.56
2022-07-29T19:55:42.342Z,100431.25
2022-07-29T20:00:45.005Z,100427.69
2022-07-29T20:05:51.169Z,100430.31
2022-07-29T20:10:54.640Z,100415.16
2022-07-29T20:15:57.385Z,100408.91
2022-07-29T20:21:01.478Z,100408.00
2022-07-29T20:26:08.704Z,100394.63
2022-07-29T20:31:12.309Z,100404.44
2022-07-29T20:36:16.514Z,100397.31
2022-07-29T20:41:19.250Z,100395.50
2022-07-29T20:46:22.243Z,100400.88
2022-07-29T20:51:26.774Z,100411.63
2022-07-29T20:56:29.529Z,100402.69
2022-07-29T21:01:32.314Z,100396.44
2022-07-29T21:06:36.462Z,100404.38
2022-07-29T21:11:44.120Z,100400.81
2022-07-29T21:16:47.783Z,100400.81
2022-07-29T21:21:51.857Z,100393.69
2022-07-29T21:27:20.753Z,100379.41
2022-07-29T21:32:27.619Z,100375.88
2022-07-29T21:37:34.566Z,100383.00
2022-07-29T21:42:37.249Z,100381.19
2022-07-29T21:47:40.233Z,100377.66
2022-07-29T21:52:44.282Z,100380.31
2022-07-29T21:57:47.001Z,100377.59
2022-07-29T22:02:49.695Z,100376.69
2022-07-29T22:07:56.375Z,100373.94
2022-07-29T22:13:01.454Z,100367.72
2022-07-29T22:18:04.336Z,100350.75
2022-07-29T22:23:08.615Z,100348.78
2022-07-29T22:28:11.323Z,100327.63
2022-07-29T22:33:17.861Z,100323.16
2022-07-29T22:38:22.509Z,100340.09
2022-07-29T22:43:25.430Z,100329.31
2022-07-29T22:48:28.196Z,100328.53
2022-07-29T22:53:32.570Z,100323.03
2022-07-29T22:58:35.509Z,100326.69
2022-07-29T23:03:39.269Z,100314.16
2022-07-29T23:08:43.501Z,100308.81
2022-07-29T23:13:46.179Z,100301.66
2022-07-29T23:18:49.203Z,100290.03
2022-07-29T23:23:56.080Z,100281.13
2022-07-29T23:28:58.782Z,100278.47
2022-07-29T23:34:01.441Z,100264.16
2022-07-29T23:39:05.974Z,100261.47
2022-07-29T23:44:08.651Z,100246.28
2022-07-29T23:49:11.366Z,100236.50
2022-07-29T23:54:15.470Z,100224.00
2022-07-29T23:59:18.186Z,100208.75
